This is the latest recevied weather packets stored in our database for station/object KJ5BMY-13. If no packets are shown the sender has not sent any weather packets the latest 10 day(s).
| Time | Temp. | Humidity | Pressure | Rain* | Wind** | Luminosity | Snow |
|---|---|---|---|---|---|---|---|
| 1777929133 | 27.78° C | 54% | 1010.2 hPa | 0 mm | - | - | - |
| 1777928831 | 27.78° C | 54% | 1010 hPa | 0 mm | - | - | - |
| 1777928528 | 27.22° C | 55% | 1010.4 hPa | 0 mm | - | - | - |
| 1777928225 | 27.22° C | 54% | 1010.4 hPa | 0 mm | - | - | - |
| 1777927922 | 27.78° C | 54% | 1010.7 hPa | 0 mm | - | - | - |
| 1777927319 | 27.78° C | 53% | 1010.7 hPa | 0 mm | - | - | - |
| 1777927017 | 27.78° C | 52% | 1010.8 hPa | 0 mm | - | - | - |
| 1777926715 | 27.78° C | 52% | 1010.9 hPa | 0 mm | - | - | - |
| 1777925809 | 27.22° C | 52% | 1011.4 hPa | 0 mm | - | - | - |
| 1777924900 | 28.33° C | 51% | 1011.6 hPa | 0 mm | - | - | - |
| 1777924596 | 28.33° C | 51% | 1011.6 hPa | 0 mm | - | - | - |
| 1777923080 | 27.78° C | 51% | 1011.9 hPa | 0 mm | - | - | - |
| 1777922778 | 27.78° C | 51% | 1012.1 hPa | 0 mm | - | - | - |
| 1777922476 | 27.22° C | 50% | 1012.2 hPa | 0 mm | - | - | - |
| 1777922174 | 27.22° C | 50% | 1012.2 hPa | 0 mm | - | - | - |
| 1777921870 | 26.67° C | 52% | 1012.3 hPa | 0 mm | - | - | - |
| 1777921566 | 26.67° C | 52% | 1012.4 hPa | 0 mm | - | - | - |
| 1777919744 | 26.67° C | 51% | 1012.8 hPa | 0 mm | - | - | - |
| 1777919139 | 27.22° C | 48% | 1012.8 hPa | 0 mm | - | - | - |
| 1777918533 | 26.67° C | 49% | 1013.2 hPa | 0 mm | - | - | - |
| 1777916417 | 26.11° C | 47% | 1013.5 hPa | 0 mm | - | - | - |
| 1777915507 | 26.11° C | 47% | 1013.7 hPa | 0 mm | - | - | - |
| 1777913990 | 25° C | 48% | 1014.4 hPa | 0 mm | - | - | - |
| 1777913080 | 25° C | 50% | 1015 hPa | 0 mm | - | - | - |
| 1777912777 | 25.56° C | 48% | 1014.5 hPa | 0 mm | - | - | - |
* Rain latest hour (hover to see other rain measurements)
** Current wind speed in m/s (hover to see current wind gust speed)